KBAD

Barksdale AFB Airport

Bossier City, Louisiana, USA
METAR KBAD 260256Z AUTO 01004KT 10SM OVC011 10/09 A3005 RMK AO2 SLP179 60001 T01030094 52009 CHINO RWY15 $
Observed Flight Rules
Feb-26 @ 02:56 UTC (29 minutes ago) Marginal Visual Flight Rules
Wind Visibility Clouds
10° at 4 knots 10 miles
  • Overcast at 1,100' AGL
Temperatures Readings
Current 10°C / 50°F
Dewpoint 9°C / 48°F
Humidity 94%
Altimeter 30.05" Hg
Pressure 1017.9 hPa
Elevation 51
METAR KBAD 260256Z AUTO 01004KT 10SM OVC011 10/09 A3005 RMK AO2 SLP179 60001 T01030094 52009 CHINO RWY15 $
Observed Flight Rules
Feb-26 @ 02:56 UTC
(29 minutes ago)
MVFR
Wind Visibility
10° at 4 knots 10 miles
Clouds
  • Overcast at 1,100' AGL
Temperature Dewpoint
10°C / 50°F 9°C / 48°F
Humidity Altimeter Pressure
94% 30.05" Hg 1017.9 hPa